Bernice Lind — WDC8364 — position and weather

sailwx.info

Track history (hours):
 
Tides and Currents Weather Stations Pressure Air Temp Water Temp Dewpoint Dewpoint Depression Visibility Wind Speed Wind Dir Waves Ship Positions

Bernice Lind

Owner: Riverview Equipment Company, LLC, Petaluma, CA. More information available from US FCC via Universal Licensing System and Coast Guard Vessel Documentation Center.

Last reported at 2015-Jan-30 00:08 UTC. Time now 2015-Jan-30 04:59 UTC.
Position N 38°14' W 122°37'.

Length 18 m; draft 2 m.

Type: Towing. MMSI: 367085890.

Date/timePositionNaut miles runAvg speedWind from/ knotsBaromVisibWave heightAir tempDewpointWater temp
2015-Jan-30 00:08N 38°14' W 122°37'0 0.0
2015-Jan-29 23:33N 38°14' W 122°37'0 0.0
2015-Jan-29 22:33N 38°14' W 122°37'0 0.0
2015-Jan-29 21:33N 38°14' W 122°37'0 0.0
2015-Jan-29 17:33N 38°14' W 122°37'0 0.3
2015-Jan-29 16:33N 38°13' W 122°36'2 2.3
2015-Jan-29 15:33N 38°12' W 122°34'3 2.7
2015-Jan-29 14:33N 38°10' W 122°33'4 3.9
2015-Jan-29 13:25N 38°07' W 122°28'4 4.1
2015-Jan-29 12:33N 38°04' W 122°26'2 1.6
2015-Jan-29 11:33N 38°02' W 122°25'0 0.0
2015-Jan-29 10:33N 38°02' W 122°25'0 0.0
2015-Jan-29 09:32N 38°02' W 122°25'0 0.0
2015-Jan-29 08:33N 38°02' W 122°25'0 0.0
2015-Jan-29 07:33N 38°02' W 122°25'0 0.0
2015-Jan-29 06:31N 38°02' W 122°25'2 1.9
2015-Jan-29 05:33N 38°02' W 122°23'4 3.9
2015-Jan-29 04:33N 38°03' W 122°18'4 3.6
2015-Jan-29 03:33N 38°04' W 122°13'18 0.4
2015-Jan-27 06:18N 38°04' W 121°51'2 0.6
2015-Jan-27 03:26N 38°03' W 121°53'5 5.8
2015-Jan-27 02:33N 38°04' W 121°59'0 0.0
2015-Jan-27 01:31N 38°04' W 121°59'0 0.0
2015-Jan-27 00:26N 38°04' W 121°59'2 0.5
2015-Jan-26 20:33N 38°04' W 122°02'4 4.3
2015-Jan-26 19:33N 38°02' W 122°07'4 4.2
2015-Jan-26 18:33N 38°03' W 122°12'4 3.9
2015-Jan-26 17:33N 38°04' W 122°17'5 4.7
2015-Jan-26 16:33N 38°03' W 122°23'6 5.8
2015-Jan-26 15:33N 38°07' W 122°29'5 5.0
2015-Jan-26 14:33N 38°11' W 122°32'4 3.7
2015-Jan-26 13:33N 38°13' W 122°36'1 1.5
2015-Jan-26 12:33N 38°14' W 122°38'1 0.9
2015-Jan-26 11:33N 38°14' W 122°37'0 0.2
2015-Jan-26 10:33N 38°13' W 122°36'0 0.0
2015-Jan-26 09:33N 38°13' W 122°36'0 0.0
2015-Jan-26 08:33N 38°13' W 122°36'0 0.0
2015-Jan-26 07:33N 38°13' W 122°36'0 0.0
2015-Jan-26 06:11N 38°13' W 122°36'0 0.0
2015-Jan-26 05:12N 38°13' W 122°36'0 0.0
2015-Jan-26 04:33N 38°13' W 122°36'0 0.0
2015-Jan-26 03:33N 38°13' W 122°36'0 0.0
2015-Jan-26 02:33N 38°13' W 122°36'0 0.0
2015-Jan-26 01:33N 38°13' W 122°36'0 0.0
2015-Jan-25 15:06N 38°13' W 122°36'0 0.0
2015-Jan-25 14:33N 38°13' W 122°36'0 0.4
2015-Jan-25 13:33N 38°13' W 122°36'1 1.4
2015-Jan-25 12:33N 38°12' W 122°35'1 1.5
2015-Jan-25 11:33N 38°12' W 122°33'3 2.7
2015-Jan-25 10:33N 38°09' W 122°32'4 3.6
2015-Jan-25 09:32N 38°07' W 122°29'3 2.7
2015-Jan-25 08:21N 38°04' W 122°26'0 0.5
2015-Jan-25 07:33N 38°04' W 122°26'3 3.0
2015-Jan-25 06:33N 38°01' W 122°26'3 3.0
2015-Jan-25 05:33N 37°58' W 122°26'3 3.1
2015-Jan-25 04:33N 37°55' W 122°25'3 3.0
2015-Jan-25 03:33N 37°52' W 122°24'5 5.3
2015-Jan-25 02:33N 37°47' W 122°23'1 0.7
2015-Jan-25 01:33N 37°46' W 122°23'3 3.2
2015-Jan-25 00:33N 37°49' W 122°24'6 6.1
2015-Jan-24 23:33N 37°55' W 122°26'5 5.2
2015-Jan-24 22:33N 38°00' W 122°26'5 4.8
2015-Jan-24 21:30N 38°05' W 122°26'4 3.8
2015-Jan-24 20:33N 38°07' W 122°30'3 3.3
2015-Jan-24 19:33N 38°10' W 122°32'3 2.7
2015-Jan-24 18:33N 38°12' W 122°34'2 2.2
2015-Jan-24 17:33N 38°13' W 122°36'0 0.1
2015-Jan-24 16:33N 38°13' W 122°36'0 0.0
2015-Jan-24 05:08N 38°13' W 122°36'0 0.0
2015-Jan-24 04:33N 38°13' W 122°36'0 0.0
2015-Jan-24 03:33N 38°13' W 122°36'0 0.0
2015-Jan-24 02:33N 38°13' W 122°36'0 0.0
2015-Jan-24 01:31N 38°13' W 122°36'0 0.0
2015-Jan-24 00:31N 38°13' W 122°36'0 0.0
2015-Jan-23 23:33N 38°13' W 122°36'0 0.1
2015-Jan-23 22:33N 38°13' W 122°36'2 2.0
2015-Jan-23 21:33N 38°12' W 122°34'3 2.7
2015-Jan-23 20:33N 38°10' W 122°33'4 4.1
2015-Jan-23 19:33N 38°07' W 122°29'3 3.3
2015-Jan-23 18:33N 38°05' W 122°26'3 3.3
2015-Jan-23 17:33N 38°01' W 122°26'3 2.9
2015-Jan-23 16:33N 37°58' W 122°26'3 2.9
2015-Jan-23 15:33N 37°56' W 122°25'2 2.5
2015-Jan-23 14:33N 37°53' W 122°24'3 3.2
2015-Jan-23 13:33N 37°50' W 122°23'4 3.9
2015-Jan-23 12:33N 37°46' W 122°23'1 1.4
2015-Jan-23 11:33N 37°48' W 122°23'5 5.0
2015-Jan-23 10:33N 37°52' W 122°25'5 5.3
2015-Jan-23 09:33N 37°57' W 122°27'5 4.8
2015-Jan-23 08:30N 38°02' W 122°25'4 4.5
2015-Jan-23 07:32N 38°06' W 122°28'3 3.0
2015-Jan-23 06:33N 38°08' W 122°31'3 3.3
2015-Jan-23 05:33N 38°11' W 122°33'3 2.9
2015-Jan-23 04:33N 38°13' W 122°35'1 1.0
2015-Jan-23 03:32N 38°13' W 122°36'0 0.0
2015-Jan-23 02:33N 38°13' W 122°36'0 0.0
2015-Jan-23 01:28N 38°13' W 122°36'0 0.0
2015-Jan-23 00:33N 38°13' W 122°36'0 0.0
2015-Jan-22 23:33N 38°13' W 122°36'0 0.0
2015-Jan-22 22:26N 38°13' W 122°36'0 0.2
2015-Jan-22 21:33N 38°13' W 122°36'3 2.7
2015-Jan-22 20:33N 38°12' W 122°33'3 3.3
2015-Jan-22 19:33N 38°09' W 122°32'4 4.0
2015-Jan-22 18:29N 38°06' W 122°27'3 3.2
2015-Jan-22 17:33N 38°04' W 122°26'4 3.7
2015-Jan-22 16:33N 38°00' W 122°26'3 2.7
2015-Jan-22 15:33N 37°57' W 122°26'3 2.5
2015-Jan-22 14:33N 37°55' W 122°25'2 2.3
2015-Jan-22 13:33N 37°53' W 122°24'4 3.9
2015-Jan-22 12:33N 37°49' W 122°23'3 2.7
2015-Jan-22 11:33N 37°46' W 122°23'0 0.0
2015-Jan-22 10:33N 37°46' W 122°23'0 0.0
2015-Jan-22 09:33N 37°46' W 122°23'0 0.4
2015-Jan-22 08:33N 37°47' W 122°23'6 6.3
2015-Jan-22 07:33N 37°53' W 122°25'5 4.7
2015-Jan-22 06:33N 37°57' W 122°27'5 5.3
2015-Jan-22 05:33N 38°02' W 122°26'5 5.0
2015-Jan-22 04:33N 38°07' W 122°29'4 4.2
2015-Jan-22 03:34N 38°10' W 122°32'4 4.4
2015-Jan-22 02:33N 38°13' W 122°36'0 0.2
2015-Jan-22 01:19N 38°13' W 122°36'0 0.0
2015-Jan-22 00:19N 38°13' W 122°36'0 0.0
2015-Jan-21 23:33N 38°13' W 122°36'0 0.0
2015-Jan-21 22:50N 38°13' W 122°36'0 0.0
2015-Jan-21 22:46N 38°13' W 122°36'0 0.0
2015-Jan-21 22:32N 38°13' W 122°36'0 0.0
2015-Jan-21 21:32N 38°13' W 122°36'0 0.0
2015-Jan-21 20:32N 38°13' W 122°36'0 0.0
2015-Jan-21 19:33N 38°13' W 122°36'2 1.6
2015-Jan-21 18:33N 38°12' W 122°35'0 0.5
2015-Jan-21 17:33N 38°12' W 122°34'0 0.0
2015-Jan-21 16:33N 38°12' W 122°34'0 0.0
2015-Jan-21 15:33N 38°12' W 122°34'0 0.0
2015-Jan-21 14:33N 38°12' W 122°34'0 0.0
2015-Jan-21 13:33N 38°12' W 122°34'0 0.0
2015-Jan-21 12:33N 38°12' W 122°34'1 0.5
2015-Jan-21 11:33N 38°12' W 122°34'1 1.0
2015-Jan-21 10:33N 38°11' W 122°33'1 1.5
2015-Jan-21 09:33N 38°10' W 122°32'2 2.3
2015-Jan-21 08:30N 38°08' W 122°31'1 1.5
2015-Jan-21 07:33N 38°07' W 122°30'4 3.5
2015-Jan-21 06:28N 38°04' W 122°26'4 4.8
2015-Jan-21 05:33N 38°00' W 122°26'5 5.0
2015-Jan-21 04:33N 37°55' W 122°25'4 3.8
2015-Jan-21 03:33N 37°52' W 122°23'4 3.8
2015-Jan-21 02:33N 37°48' W 122°23'2 1.5
2015-Jan-21 01:33N 37°46' W 122°23'0 0.0
2015-Jan-20 13:06N 37°46' W 122°23'0 0.2
2015-Jan-20 12:33N 37°46' W 122°23'1 1.3
2015-Jan-20 11:33N 37°45' W 122°23'1 1.1
2015-Jan-20 10:33N 37°45' W 122°21'0 0.0
2015-Jan-20 09:33N 37°45' W 122°21'0 0.0
2015-Jan-20 08:33N 37°45' W 122°21'0 0.0
2015-Jan-20 07:33N 37°45' W 122°21'0 0.0
2015-Jan-20 06:33N 37°45' W 122°21'0 0.0
2015-Jan-20 05:33N 37°45' W 122°21'0 0.1
2015-Jan-20 04:33N 37°45' W 122°22'1 1.5
2015-Jan-20 03:33N 37°46' W 122°23'1 1.3
2015-Jan-20 02:33N 37°46' W 122°21'0 0.0
2015-Jan-20 01:33N 37°46' W 122°21'1 1.3
2015-Jan-20 00:34N 37°46' W 122°23'  
Track history (hours):
 
Tides and Currents Weather Stations Pressure Air Temp Water Temp Dewpoint Dewpoint Depression Visibility Wind Speed Wind Dir Waves Ship Positions

Bernice Lind

Owner: Riverview Equipment Company, LLC, Petaluma, CA. More information available from US FCC via Universal Licensing System and Coast Guard Vessel Documentation Center.

Last reported at 2015-Jan-30 00:08 UTC. Time now 2015-Jan-30 04:59 UTC.
Position N 38°14' W 122°37'.

Length 18 m; draft 2 m.

Type: Towing. MMSI: 367085890.

Date/timePositionNaut miles runAvg speedWind from/ knotsBaromVisibWave heightAir tempDewpointWater temp
2015-Jan-30 00:08N 38°14' W 122°37'0 0.0
2015-Jan-29 23:33N 38°14' W 122°37'0 0.0
2015-Jan-29 22:33N 38°14' W 122°37'0 0.0
2015-Jan-29 21:33N 38°14' W 122°37'0 0.0
2015-Jan-29 17:33N 38°14' W 122°37'0 0.3
2015-Jan-29 16:33N 38°13' W 122°36'2 2.3
2015-Jan-29 15:33N 38°12' W 122°34'3 2.7
2015-Jan-29 14:33N 38°10' W 122°33'4 3.9
2015-Jan-29 13:25N 38°07' W 122°28'4 4.1
2015-Jan-29 12:33N 38°04' W 122°26'2 1.6
2015-Jan-29 11:33N 38°02' W 122°25'0 0.0
2015-Jan-29 10:33N 38°02' W 122°25'0 0.0
2015-Jan-29 09:32N 38°02' W 122°25'0 0.0
2015-Jan-29 08:33N 38°02' W 122°25'0 0.0
2015-Jan-29 07:33N 38°02' W 122°25'0 0.0
2015-Jan-29 06:31N 38°02' W 122°25'2 1.9
2015-Jan-29 05:33N 38°02' W 122°23'4 3.9
2015-Jan-29 04:33N 38°03' W 122°18'4 3.6
2015-Jan-29 03:33N 38°04' W 122°13'18 0.4
2015-Jan-27 06:18N 38°04' W 121°51'2 0.6
2015-Jan-27 03:26N 38°03' W 121°53'5 5.8
2015-Jan-27 02:33N 38°04' W 121°59'0 0.0
2015-Jan-27 01:31N 38°04' W 121°59'0 0.0
2015-Jan-27 00:26N 38°04' W 121°59'2 0.5
2015-Jan-26 20:33N 38°04' W 122°02'4 4.3
2015-Jan-26 19:33N 38°02' W 122°07'4 4.2
2015-Jan-26 18:33N 38°03' W 122°12'4 3.9
2015-Jan-26 17:33N 38°04' W 122°17'5 4.7
2015-Jan-26 16:33N 38°03' W 122°23'6 5.8
2015-Jan-26 15:33N 38°07' W 122°29'5 5.0
2015-Jan-26 14:33N 38°11' W 122°32'4 3.7
2015-Jan-26 13:33N 38°13' W 122°36'1 1.5
2015-Jan-26 12:33N 38°14' W 122°38'1 0.9
2015-Jan-26 11:33N 38°14' W 122°37'0 0.2
2015-Jan-26 10:33N 38°13' W 122°36'0 0.0
2015-Jan-26 09:33N 38°13' W 122°36'0 0.0
2015-Jan-26 08:33N 38°13' W 122°36'0 0.0
2015-Jan-26 07:33N 38°13' W 122°36'0 0.0
2015-Jan-26 06:11N 38°13' W 122°36'0 0.0
2015-Jan-26 05:12N 38°13' W 122°36'0 0.0
2015-Jan-26 04:33N 38°13' W 122°36'0 0.0
2015-Jan-26 03:33N 38°13' W 122°36'0 0.0
2015-Jan-26 02:33N 38°13' W 122°36'0 0.0
2015-Jan-26 01:33N 38°13' W 122°36'0 0.0
2015-Jan-25 15:06N 38°13' W 122°36'0 0.0
2015-Jan-25 14:33N 38°13' W 122°36'0 0.4
2015-Jan-25 13:33N 38°13' W 122°36'1 1.4
2015-Jan-25 12:33N 38°12' W 122°35'1 1.5
2015-Jan-25 11:33N 38°12' W 122°33'3 2.7
2015-Jan-25 10:33N 38°09' W 122°32'4 3.6
2015-Jan-25 09:32N 38°07' W 122°29'3 2.7
2015-Jan-25 08:21N 38°04' W 122°26'0 0.5
2015-Jan-25 07:33N 38°04' W 122°26'3 3.0
2015-Jan-25 06:33N 38°01' W 122°26'3 3.0
2015-Jan-25 05:33N 37°58' W 122°26'3 3.1
2015-Jan-25 04:33N 37°55' W 122°25'3 3.0
2015-Jan-25 03:33N 37°52' W 122°24'5 5.3
2015-Jan-25 02:33N 37°47' W 122°23'1 0.7
2015-Jan-25 01:33N 37°46' W 122°23'3 3.2
2015-Jan-25 00:33N 37°49' W 122°24'6 6.1
2015-Jan-24 23:33N 37°55' W 122°26'5 5.2
2015-Jan-24 22:33N 38°00' W 122°26'5 4.8
2015-Jan-24 21:30N 38°05' W 122°26'4 3.8
2015-Jan-24 20:33N 38°07' W 122°30'3 3.3
2015-Jan-24 19:33N 38°10' W 122°32'3 2.7
2015-Jan-24 18:33N 38°12' W 122°34'2 2.2
2015-Jan-24 17:33N 38°13' W 122°36'0 0.1
2015-Jan-24 16:33N 38°13' W 122°36'0 0.0
2015-Jan-24 05:08N 38°13' W 122°36'0 0.0
2015-Jan-24 04:33N 38°13' W 122°36'0 0.0
2015-Jan-24 03:33N 38°13' W 122°36'0 0.0
2015-Jan-24 02:33N 38°13' W 122°36'0 0.0
2015-Jan-24 01:31N 38°13' W 122°36'0 0.0
2015-Jan-24 00:31N 38°13' W 122°36'0 0.0
2015-Jan-23 23:33N 38°13' W 122°36'0 0.1
2015-Jan-23 22:33N 38°13' W 122°36'2 2.0
2015-Jan-23 21:33N 38°12' W 122°34'3 2.7
2015-Jan-23 20:33N 38°10' W 122°33'4 4.1
2015-Jan-23 19:33N 38°07' W 122°29'3 3.3
2015-Jan-23 18:33N 38°05' W 122°26'3 3.3
2015-Jan-23 17:33N 38°01' W 122°26'3 2.9
2015-Jan-23 16:33N 37°58' W 122°26'3 2.9
2015-Jan-23 15:33N 37°56' W 122°25'2 2.5
2015-Jan-23 14:33N 37°53' W 122°24'3 3.2
2015-Jan-23 13:33N 37°50' W 122°23'4 3.9
2015-Jan-23 12:33N 37°46' W 122°23'1 1.4
2015-Jan-23 11:33N 37°48' W 122°23'5 5.0
2015-Jan-23 10:33N 37°52' W 122°25'5 5.3
2015-Jan-23 09:33N 37°57' W 122°27'5 4.8
2015-Jan-23 08:30N 38°02' W 122°25'4 4.5
2015-Jan-23 07:32N 38°06' W 122°28'3 3.0
2015-Jan-23 06:33N 38°08' W 122°31'3 3.3
2015-Jan-23 05:33N 38°11' W 122°33'3 2.9
2015-Jan-23 04:33N 38°13' W 122°35'1 1.0
2015-Jan-23 03:32N 38°13' W 122°36'0 0.0
2015-Jan-23 02:33N 38°13' W 122°36'0 0.0
2015-Jan-23 01:28N 38°13' W 122°36'0 0.0
2015-Jan-23 00:33N 38°13' W 122°36'0 0.0
2015-Jan-22 23:33N 38°13' W 122°36'0 0.0
2015-Jan-22 22:26N 38°13' W 122°36'0 0.2
2015-Jan-22 21:33N 38°13' W 122°36'3 2.7
2015-Jan-22 20:33N 38°12' W 122°33'3 3.3
2015-Jan-22 19:33N 38°09' W 122°32'4 4.0
2015-Jan-22 18:29N 38°06' W 122°27'3 3.2
2015-Jan-22 17:33N 38°04' W 122°26'4 3.7
2015-Jan-22 16:33N 38°00' W 122°26'3 2.7
2015-Jan-22 15:33N 37°57' W 122°26'3 2.5
2015-Jan-22 14:33N 37°55' W 122°25'2 2.3
2015-Jan-22 13:33N 37°53' W 122°24'4 3.9
2015-Jan-22 12:33N 37°49' W 122°23'3 2.7
2015-Jan-22 11:33N 37°46' W 122°23'0 0.0
2015-Jan-22 10:33N 37°46' W 122°23'0 0.0
2015-Jan-22 09:33N 37°46' W 122°23'0 0.4
2015-Jan-22 08:33N 37°47' W 122°23'6 6.3
2015-Jan-22 07:33N 37°53' W 122°25'5 4.7
2015-Jan-22 06:33N 37°57' W 122°27'5 5.3
2015-Jan-22 05:33N 38°02' W 122°26'5 5.0
2015-Jan-22 04:33N 38°07' W 122°29'4 4.2
2015-Jan-22 03:34N 38°10' W 122°32'4 4.4
2015-Jan-22 02:33N 38°13' W 122°36'0 0.2
2015-Jan-22 01:19N 38°13' W 122°36'0 0.0
2015-Jan-22 00:19N 38°13' W 122°36'0 0.0
2015-Jan-21 23:33N 38°13' W 122°36'0 0.0
2015-Jan-21 22:50N 38°13' W 122°36'0 0.0
2015-Jan-21 22:46N 38°13' W 122°36'0 0.0
2015-Jan-21 22:32N 38°13' W 122°36'0 0.0
2015-Jan-21 21:32N 38°13' W 122°36'0 0.0
2015-Jan-21 20:32N 38°13' W 122°36'0 0.0
2015-Jan-21 19:33N 38°13' W 122°36'2 1.6
2015-Jan-21 18:33N 38°12' W 122°35'0 0.5
2015-Jan-21 17:33N 38°12' W 122°34'0 0.0
2015-Jan-21 16:33N 38°12' W 122°34'0 0.0
2015-Jan-21 15:33N 38°12' W 122°34'0 0.0
2015-Jan-21 14:33N 38°12' W 122°34'0 0.0
2015-Jan-21 13:33N 38°12' W 122°34'0 0.0
2015-Jan-21 12:33N 38°12' W 122°34'1 0.5
2015-Jan-21 11:33N 38°12' W 122°34'1 1.0
2015-Jan-21 10:33N 38°11' W 122°33'1 1.5
2015-Jan-21 09:33N 38°10' W 122°32'2 2.3
2015-Jan-21 08:30N 38°08' W 122°31'1 1.5
2015-Jan-21 07:33N 38°07' W 122°30'4 3.5
2015-Jan-21 06:28N 38°04' W 122°26'4 4.8
2015-Jan-21 05:33N 38°00' W 122°26'5 5.0
2015-Jan-21 04:33N 37°55' W 122°25'4 3.8
2015-Jan-21 03:33N 37°52' W 122°23'4 3.8
2015-Jan-21 02:33N 37°48' W 122°23'2 1.5
2015-Jan-21 01:33N 37°46' W 122°23'0 0.0
2015-Jan-20 13:06N 37°46' W 122°23'0 0.2
2015-Jan-20 12:33N 37°46' W 122°23'1 1.3
2015-Jan-20 11:33N 37°45' W 122°23'1 1.1
2015-Jan-20 10:33N 37°45' W 122°21'0 0.0
2015-Jan-20 09:33N 37°45' W 122°21'0 0.0
2015-Jan-20 08:33N 37°45' W 122°21'0 0.0
2015-Jan-20 07:33N 37°45' W 122°21'0 0.0
2015-Jan-20 06:33N 37°45' W 122°21'0 0.0
2015-Jan-20 05:33N 37°45' W 122°21'0 0.1
2015-Jan-20 04:33N 37°45' W 122°22'1 1.5
2015-Jan-20 03:33N 37°46' W 122°23'1 1.3
2015-Jan-20 02:33N 37°46' W 122°21'0 0.0
2015-Jan-20 01:33N 37°46' W 122°21'1 1.3
2015-Jan-20 00:34N 37°46' W 122°23'  

Dump ship's entire track history